createdAt,value
2022-07-27T00:00:14.887Z,16.37
2022-07-27T00:01:14.941Z,16.40
2022-07-27T00:02:14.798Z,16.34
2022-07-27T00:03:14.756Z,16.26
2022-07-27T00:04:14.797Z,16.39
2022-07-27T00:05:14.668Z,16.22
2022-07-27T00:06:14.622Z,16.25
2022-07-27T00:07:14.577Z,16.29
2022-07-27T00:08:14.534Z,16.22
2022-07-27T00:09:15.018Z,16.34
2022-07-27T00:10:14.441Z,16.17
2022-07-27T00:11:14.403Z,16.25
2022-07-27T00:12:14.357Z,16.16
2022-07-27T00:13:14.307Z,16.18
2022-07-27T00:14:14.260Z,16.21
2022-07-27T00:15:14.217Z,16.18
2022-07-27T00:16:14.243Z,16.21
2022-07-27T00:17:14.130Z,16.18
2022-07-27T00:18:14.083Z,16.17
2022-07-27T00:19:14.377Z,16.10
2022-07-27T00:20:13.990Z,16.12
2022-07-27T00:21:13.950Z,16.12
2022-07-27T00:22:13.904Z,16.10
2022-07-27T00:23:13.860Z,16.09
2022-07-27T00:24:13.813Z,16.10
2022-07-27T00:25:13.769Z,16.10
2022-07-27T00:26:13.723Z,16.10
2022-07-27T00:27:13.682Z,16.12
2022-07-27T00:28:13.631Z,16.03
2022-07-27T00:29:14.147Z,16.05
2022-07-27T00:30:13.550Z,16.05
2022-07-27T00:31:13.590Z,16.03
2022-07-27T00:32:13.463Z,16.02
2022-07-27T00:33:15.881Z,16.00
2022-07-27T00:34:13.364Z,15.99
2022-07-27T00:35:13.323Z,15.99
2022-07-27T00:36:13.272Z,16.00
2022-07-27T00:37:13.233Z,15.91
2022-07-27T00:38:13.184Z,16.00
2022-07-27T00:39:13.567Z,15.91
2022-07-27T00:40:13.099Z,15.96
2022-07-27T00:41:13.047Z,15.92
2022-07-27T00:42:13.006Z,15.91
2022-07-27T00:43:12.959Z,15.92
2022-07-27T00:44:12.916Z,15.92
2022-07-27T00:45:12.871Z,15.92
2022-07-27T00:47:12.779Z,15.85
2022-07-27T00:48:12.732Z,15.88
2022-07-27T00:49:13.172Z,15.87
2022-07-27T00:50:12.643Z,15.84
2022-07-27T00:51:12.599Z,15.81
2022-07-27T00:52:12.552Z,15.85
2022-07-27T00:53:12.511Z,15.76
2022-07-27T00:54:12.463Z,15.85
2022-07-27T00:55:12.421Z,15.85
2022-07-27T00:56:12.375Z,15.75
2022-07-27T00:57:12.334Z,15.80
2022-07-27T00:58:12.284Z,15.85
2022-07-27T01:00:25.254Z,15.84
2022-07-27T01:01:25.253Z,15.85
2022-07-27T01:02:25.344Z,15.81
2022-07-27T01:03:29.734Z,15.81
2022-07-27T01:04:25.090Z,15.87
2022-07-27T01:05:35.952Z,15.83
2022-07-27T01:06:27.329Z,15.85
2022-07-27T01:07:24.939Z,15.85
2022-07-27T01:08:24.897Z,15.83
2022-07-27T01:09:24.855Z,15.76
2022-07-27T01:10:24.806Z,15.84
2022-07-27T01:11:24.763Z,15.81
2022-07-27T01:12:24.731Z,15.88
2022-07-27T01:13:24.681Z,15.83
2022-07-27T01:15:24.591Z,15.80
2022-07-27T01:16:24.616Z,15.83
2022-07-27T01:17:24.499Z,15.84
2022-07-27T01:18:24.453Z,15.80
2022-07-27T01:19:24.411Z,15.87
2022-07-27T01:20:24.372Z,15.81
2022-07-27T01:21:24.330Z,15.84
2022-07-27T01:22:24.280Z,15.80
2022-07-27T01:23:25.045Z,15.75
2022-07-27T01:24:24.196Z,15.84
2022-07-27T01:25:24.152Z,15.75
2022-07-27T01:26:24.104Z,15.76
2022-07-27T01:27:24.062Z,15.70
2022-07-27T01:28:24.017Z,15.70
2022-07-27T01:29:23.973Z,15.76
2022-07-27T01:30:23.931Z,15.81
2022-07-27T01:31:23.903Z,15.83
2022-07-27T01:32:23.837Z,15.80
2022-07-27T01:33:23.795Z,15.84
2022-07-27T01:34:23.756Z,15.69
2022-07-27T01:35:23.711Z,15.73
2022-07-27T01:36:23.667Z,15.70
2022-07-27T01:37:23.624Z,15.63
2022-07-27T01:38:23.576Z,15.70
2022-07-27T01:39:23.536Z,15.73
2022-07-27T01:40:23.499Z,15.76
2022-07-27T01:41:23.446Z,15.73
2022-07-27T01:42:23.405Z,15.72
2022-07-27T01:43:23.359Z,15.67
2022-07-27T01:44:23.314Z,15.69
2022-07-27T01:45:23.300Z,15.69
2022-07-27T01:46:23.308Z,15.70
2022-07-27T01:47:23.226Z,15.69
2022-07-27T01:48:23.141Z,15.59
2022-07-27T01:49:23.179Z,15.59
2022-07-27T01:50:23.056Z,15.65
2022-07-27T01:51:23.013Z,15.66
2022-07-27T01:52:22.963Z,15.52
2022-07-27T01:53:22.923Z,15.52
2022-07-27T01:54:22.872Z,15.57
2022-07-27T01:55:22.832Z,15.62
2022-07-27T01:56:22.793Z,15.51
2022-07-27T01:57:22.749Z,15.47
2022-07-27T01:58:22.698Z,15.50
2022-07-27T01:59:22.658Z,15.48
2022-07-27T02:00:22.611Z,15.52
2022-07-27T02:01:22.655Z,15.43
2022-07-27T02:02:22.526Z,15.41
2022-07-27T02:03:22.486Z,15.48
2022-07-27T02:04:22.441Z,15.33
2022-07-27T02:05:22.422Z,15.37
2022-07-27T02:06:22.356Z,15.39
2022-07-27T02:07:22.316Z,15.30
2022-07-27T02:08:22.263Z,15.32
2022-07-27T02:09:22.221Z,15.18
2022-07-27T02:10:22.174Z,15.29
2022-07-27T02:11:22.132Z,15.22
2022-07-27T02:12:22.085Z,15.22
2022-07-27T02:13:22.845Z,15.14
2022-07-27T02:14:22.043Z,15.12
2022-07-27T02:15:21.977Z,15.11
2022-07-27T02:16:21.981Z,15.18
2022-07-27T02:17:21.867Z,15.08
2022-07-27T02:18:33.689Z,15.04
2022-07-27T02:19:21.782Z,15.07
2022-07-27T02:20:21.739Z,15.10
2022-07-27T02:21:21.696Z,15.04
2022-07-27T02:22:21.664Z,15.00
2022-07-27T02:23:21.606Z,15.00
2022-07-27T02:24:21.556Z,14.93
2022-07-27T02:25:21.518Z,15.00
2022-07-27T02:26:21.468Z,14.92
2022-07-27T02:27:21.428Z,14.85
2022-07-27T02:28:21.384Z,14.81
2022-07-27T02:29:21.350Z,14.79
2022-07-27T02:30:21.303Z,14.82
2022-07-27T02:31:21.291Z,14.77
2022-07-27T02:32:21.206Z,14.86
2022-07-27T02:33:21.268Z,14.85
2022-07-27T02:34:21.116Z,14.73
2022-07-27T02:35:21.080Z,14.71
2022-07-27T02:36:21.042Z,14.63
2022-07-27T02:37:20.987Z,14.66
2022-07-27T02:38:20.948Z,14.63
2022-07-27T02:39:20.905Z,14.63
2022-07-27T02:40:20.875Z,14.55
2022-07-27T02:41:20.839Z,14.56
2022-07-27T02:42:20.789Z,14.53
2022-07-27T02:43:20.727Z,14.62
2022-07-27T02:44:20.696Z,14.45
2022-07-27T02:45:20.636Z,14.56
2022-07-27T02:46:20.667Z,14.41
2022-07-27T02:47:20.546Z,14.43
2022-07-27T02:48:20.501Z,14.44
2022-07-27T02:49:20.529Z,14.48
2022-07-27T02:50:20.413Z,14.40
2022-07-27T02:51:20.366Z,14.37
2022-07-27T02:52:20.331Z,14.31
2022-07-27T02:53:20.287Z,14.36
2022-07-27T02:54:20.240Z,14.28
2022-07-27T02:55:20.198Z,14.23
2022-07-27T02:56:20.158Z,14.28
2022-07-27T02:57:20.117Z,14.36
2022-07-27T02:58:20.078Z,14.19
2022-07-27T02:59:20.015Z,14.26
2022-07-27T03:00:19.974Z,14.23
2022-07-27T03:01:19.982Z,14.23
2022-07-27T03:02:19.879Z,14.16
2022-07-27T03:03:19.836Z,14.13
2022-07-27T03:04:19.849Z,14.07
2022-07-27T03:05:19.770Z,14.13
2022-07-27T03:06:19.700Z,14.12
2022-07-27T03:07:19.660Z,14.05
2022-07-27T03:08:19.614Z,14.03
2022-07-27T03:09:19.570Z,14.07
2022-07-27T03:10:19.522Z,14.00
2022-07-27T03:11:19.481Z,14.00
2022-07-27T03:12:19.439Z,14.00
2022-07-27T03:13:19.390Z,13.87
2022-07-27T03:14:19.502Z,13.87
2022-07-27T03:15:19.302Z,13.94
2022-07-27T03:16:19.320Z,13.87
2022-07-27T03:17:19.223Z,13.89
2022-07-27T03:18:19.170Z,13.91
2022-07-27T03:19:19.123Z,13.80
2022-07-27T03:20:19.078Z,13.83
2022-07-27T03:21:19.041Z,13.83
2022-07-27T03:22:19.001Z,13.83
2022-07-27T03:23:18.951Z,13.79
2022-07-27T03:24:18.908Z,13.71
2022-07-27T03:25:18.855Z,13.83
2022-07-27T03:26:18.821Z,13.75
2022-07-27T03:27:18.782Z,13.71
2022-07-27T03:28:18.926Z,13.67
2022-07-27T03:29:18.682Z,13.73
2022-07-27T03:30:18.682Z,13.70
2022-07-27T03:31:18.661Z,13.71
2022-07-27T03:32:18.556Z,13.78
2022-07-27T03:33:18.504Z,13.68
2022-07-27T03:34:18.455Z,13.65
2022-07-27T03:35:19.904Z,13.61
2022-07-27T03:36:18.376Z,13.62
2022-07-27T03:37:18.326Z,13.62
2022-07-27T03:38:18.301Z,13.50
2022-07-27T03:39:18.238Z,13.64
2022-07-27T03:40:18.190Z,13.58
2022-07-27T03:41:18.145Z,13.61
2022-07-27T03:42:18.112Z,13.60
2022-07-27T03:43:18.055Z,13.55
2022-07-27T03:44:18.013Z,13.52
2022-07-27T03:45:17.969Z,13.47
2022-07-27T03:46:17.955Z,13.50
2022-07-27T03:47:17.878Z,13.50
2022-07-27T03:48:17.848Z,13.50
2022-07-27T03:49:18.007Z,13.47
2022-07-27T03:50:17.799Z,13.43
2022-07-27T03:51:17.699Z,13.46
2022-07-27T03:52:18.121Z,13.40
2022-07-27T03:53:17.611Z,13.39
2022-07-27T03:54:17.572Z,13.36
2022-07-27T03:55:17.538Z,13.45
2022-07-27T03:56:17.476Z,13.37
2022-07-27T03:57:17.430Z,13.39
2022-07-27T03:58:17.387Z,13.40
2022-07-27T03:59:17.350Z,13.45
2022-07-27T04:00:17.294Z,13.43
2022-07-27T04:01:17.352Z,13.42
2022-07-27T04:04:17.116Z,13.26
2022-07-27T04:05:17.079Z,13.33
2022-07-27T04:06:17.028Z,13.33
2022-07-27T04:07:16.990Z,13.31
2022-07-27T04:08:16.943Z,13.30
2022-07-27T04:09:17.304Z,13.28
2022-07-27T04:10:16.864Z,13.30
2022-07-27T04:11:18.230Z,13.24
2022-07-27T04:12:17.441Z,13.27
2022-07-27T04:13:16.715Z,13.27
2022-07-27T04:14:16.673Z,13.26
2022-07-27T04:15:16.627Z,13.31
2022-07-27T04:16:16.647Z,13.26
2022-07-27T04:17:54.829Z,13.26
2022-07-27T04:18:16.498Z,13.24
2022-07-27T04:19:16.673Z,13.28
2022-07-27T04:20:16.402Z,13.28
2022-07-27T04:21:16.360Z,13.21
2022-07-27T04:22:16.313Z,13.31
2022-07-27T04:23:16.269Z,13.21
2022-07-27T04:24:16.220Z,13.16
2022-07-27T04:25:16.180Z,13.26
2022-07-27T04:26:16.138Z,13.20
2022-07-27T04:27:16.086Z,13.20
2022-07-27T04:28:16.050Z,13.13
2022-07-27T04:29:20.520Z,13.20
2022-07-27T04:30:15.951Z,13.23
2022-07-27T04:31:15.996Z,13.13
2022-07-27T04:32:15.874Z,13.19
2022-07-27T04:33:15.827Z,13.24
2022-07-27T04:34:15.777Z,13.16
2022-07-27T04:35:15.750Z,13.21
2022-07-27T04:36:15.689Z,13.21
2022-07-27T04:37:15.641Z,13.13
2022-07-27T04:38:15.593Z,13.20
2022-07-27T04:39:15.766Z,13.20
2022-07-27T04:40:15.509Z,13.17
2022-07-27T04:41:15.467Z,13.19
2022-07-27T04:42:15.416Z,13.24
2022-07-27T04:43:15.373Z,13.19
2022-07-27T04:44:15.327Z,13.19
2022-07-27T04:45:15.283Z,13.19
2022-07-27T04:46:15.673Z,13.21
2022-07-27T04:49:15.710Z,13.20
2022-07-27T04:50:15.056Z,13.30
2022-07-27T04:51:15.009Z,13.23
2022-07-27T04:55:54.164Z,13.28
2022-07-27T04:56:54.101Z,13.31
2022-07-27T04:57:54.055Z,13.28
2022-07-27T05:04:46.352Z,13.33
2022-07-27T05:05:50.229Z,13.45
2022-07-27T05:07:55.654Z,13.45
2022-07-27T05:08:55.410Z,13.46
2022-07-27T05:09:59.202Z,13.46
2022-07-27T05:10:55.315Z,13.37
2022-07-27T05:11:55.268Z,13.54
2022-07-27T05:12:55.228Z,13.49
2022-07-27T05:13:55.183Z,13.57
2022-07-27T05:14:55.130Z,13.54
2022-07-27T05:15:56.011Z,13.54
2022-07-27T05:16:55.121Z,13.58
2022-07-27T05:17:55.004Z,13.62
2022-07-27T05:18:54.951Z,13.68
2022-07-27T05:20:44.296Z,13.68
2022-07-27T05:21:44.250Z,13.67
2022-07-27T05:22:44.203Z,13.73
2022-07-27T05:23:44.159Z,13.73
2022-07-27T05:24:44.113Z,13.79
2022-07-27T05:25:44.064Z,13.83
2022-07-27T05:26:44.030Z,13.82
2022-07-27T05:27:54.655Z,13.82
2022-07-27T05:28:43.936Z,13.86
2022-07-27T05:29:43.883Z,13.95
2022-07-27T05:30:43.841Z,13.87
2022-07-27T05:31:43.896Z,14.03
2022-07-27T05:32:43.748Z,14.00
2022-07-27T05:33:48.327Z,14.01
2022-07-27T05:34:43.669Z,14.11
2022-07-27T05:35:43.612Z,14.08
2022-07-27T05:36:43.567Z,14.26
2022-07-27T05:37:43.523Z,14.20
2022-07-27T05:38:43.477Z,14.28
2022-07-27T05:39:43.433Z,14.23
2022-07-27T05:40:43.410Z,14.36
2022-07-27T05:41:43.341Z,14.30
2022-07-27T05:42:43.298Z,14.43
2022-07-27T05:43:43.256Z,14.44
2022-07-27T05:44:43.210Z,14.49
2022-07-27T05:45:43.194Z,14.51
2022-07-27T05:46:43.127Z,14.53
2022-07-27T05:47:43.079Z,14.58
2022-07-27T05:48:43.056Z,14.63
2022-07-27T05:49:42.999Z,14.66
2022-07-27T05:50:42.950Z,14.81
2022-07-27T05:51:42.899Z,14.74
2022-07-27T05:52:42.857Z,14.78
2022-07-27T05:53:43.145Z,14.79
2022-07-27T05:54:42.766Z,14.89
2022-07-27T05:55:58.821Z,14.99
2022-07-27T05:56:42.684Z,15.04
2022-07-27T05:57:42.635Z,15.00
2022-07-27T05:58:42.589Z,15.05
2022-07-27T05:59:42.546Z,15.10
2022-07-27T06:00:42.625Z,15.10
2022-07-27T06:01:42.457Z,15.25
2022-07-27T06:02:42.413Z,15.17
2022-07-27T06:03:42.469Z,15.32
2022-07-27T06:04:42.323Z,15.36
2022-07-27T06:05:42.280Z,15.35
2022-07-27T06:06:42.254Z,15.41
2022-07-27T06:07:42.189Z,15.47
2022-07-27T06:08:42.154Z,15.48
2022-07-27T06:09:42.103Z,15.48
2022-07-27T06:10:42.058Z,15.55
2022-07-27T06:11:42.037Z,15.57
2022-07-27T06:12:41.972Z,15.60
2022-07-27T06:13:42.552Z,15.72
2022-07-27T06:14:41.883Z,15.66
2022-07-27T06:15:41.839Z,15.76
2022-07-27T06:16:41.878Z,15.72
2022-07-27T06:17:41.763Z,15.84
2022-07-27T06:18:41.715Z,15.87
2022-07-27T06:19:41.674Z,15.92
2022-07-27T06:20:41.627Z,16.03
2022-07-27T06:21:41.599Z,16.08
2022-07-27T06:22:41.541Z,16.13
2022-07-27T06:23:41.488Z,16.25
2022-07-27T06:24:41.453Z,16.13
2022-07-27T06:25:41.399Z,16.22
2022-07-27T06:26:41.356Z,16.25
2022-07-27T06:27:41.313Z,16.26
2022-07-27T06:28:41.295Z,16.32
2022-07-27T06:29:41.247Z,16.37
2022-07-27T06:30:41.188Z,16.39
2022-07-27T06:31:42.703Z,16.41
2022-07-27T06:32:41.101Z,16.55
2022-07-27T06:33:41.050Z,16.47
2022-07-27T06:34:43.097Z,16.59
2022-07-27T06:35:40.973Z,16.58
2022-07-27T06:36:40.927Z,16.69
2022-07-27T06:37:40.877Z,16.74
2022-07-27T06:38:40.833Z,16.74
2022-07-27T06:39:40.791Z,16.82
2022-07-27T06:40:40.748Z,16.89
2022-07-27T06:41:40.705Z,16.91
2022-07-27T06:42:40.664Z,16.89
2022-07-27T06:43:40.619Z,16.95
2022-07-27T06:44:40.574Z,16.99
2022-07-27T06:45:40.532Z,16.95
2022-07-27T06:46:40.528Z,17.02
2022-07-27T06:47:49.667Z,17.10
2022-07-27T06:48:40.419Z,17.17
2022-07-27T06:49:40.353Z,17.24
2022-07-27T06:50:40.312Z,17.23
2022-07-27T06:51:40.273Z,17.28
2022-07-27T06:52:40.231Z,17.31
2022-07-27T06:53:40.180Z,17.31
2022-07-27T06:54:40.139Z,17.34
2022-07-27T06:55:40.097Z,17.31
2022-07-27T06:56:40.053Z,17.41
2022-07-27T06:57:40.016Z,17.39
2022-07-27T06:58:39.967Z,17.50
2022-07-27T06:59:42.477Z,17.54
2022-07-27T07:00:39.957Z,17.59
2022-07-27T07:01:39.839Z,17.57
2022-07-27T07:02:39.795Z,17.63
2022-07-27T07:03:39.820Z,17.69
2022-07-27T07:04:39.714Z,17.73
2022-07-27T07:05:39.663Z,17.72
2022-07-27T07:06:39.622Z,17.80
2022-07-27T07:07:39.578Z,17.84
2022-07-27T07:08:39.537Z,17.90
2022-07-27T07:09:39.494Z,17.94
2022-07-27T07:10:39.450Z,18.02
2022-07-27T07:11:39.406Z,17.98
2022-07-27T07:12:39.366Z,18.03
2022-07-27T07:13:44.567Z,18.08
2022-07-27T07:14:39.336Z,18.08
2022-07-27T07:15:39.234Z,18.16
2022-07-27T07:16:39.277Z,18.18
2022-07-27T07:17:39.149Z,18.31
2022-07-27T07:18:39.105Z,18.26
2022-07-27T07:19:39.061Z,18.33
2022-07-27T07:20:39.025Z,18.33
2022-07-27T07:21:38.978Z,18.42
2022-07-27T07:22:38.944Z,18.36
2022-07-27T07:23:38.892Z,18.48
2022-07-27T07:24:38.855Z,18.46
2022-07-27T07:25:38.813Z,18.53
2022-07-27T07:26:38.768Z,18.61
2022-07-27T07:27:38.724Z,18.67
2022-07-27T07:28:38.679Z,18.79
2022-07-27T07:29:38.636Z,18.70
2022-07-27T07:30:38.602Z,18.68
2022-07-27T07:31:38.663Z,18.81
2022-07-27T07:32:38.509Z,18.85
2022-07-27T07:33:38.467Z,18.91
2022-07-27T07:34:38.428Z,18.85
2022-07-27T07:35:38.383Z,18.83
2022-07-27T07:36:38.339Z,18.97
2022-07-27T07:37:38.298Z,18.97
2022-07-27T07:38:38.261Z,18.96
2022-07-27T07:39:38.210Z,19.00
2022-07-27T07:40:43.817Z,18.96
2022-07-27T07:41:38.126Z,18.94
2022-07-27T07:42:38.084Z,19.07
2022-07-27T07:43:38.043Z,19.00
2022-07-27T07:44:38.002Z,19.08
2022-07-27T07:45:38.077Z,18.97
2022-07-27T07:46:38.008Z,18.97
2022-07-27T07:47:37.870Z,19.00
2022-07-27T07:48:37.911Z,19.08
2022-07-27T07:49:40.059Z,19.20
2022-07-27T07:50:37.748Z,19.22
2022-07-27T07:51:37.700Z,19.27
2022-07-27T07:52:37.658Z,19.37
2022-07-27T07:53:41.375Z,19.30
2022-07-27T07:54:37.584Z,19.44
2022-07-27T07:55:37.532Z,19.48
2022-07-27T07:56:37.495Z,19.56
2022-07-27T07:57:37.446Z,19.55
2022-07-27T07:58:37.413Z,19.56
2022-07-27T07:59:37.364Z,19.63
2022-07-27T08:00:37.321Z,19.67
2022-07-27T08:01:37.304Z,19.62
2022-07-27T08:02:37.321Z,19.67
2022-07-27T08:03:37.195Z,19.78
2022-07-27T08:04:37.152Z,19.84
2022-07-27T08:05:37.113Z,19.90
2022-07-27T08:06:37.076Z,20.00
2022-07-27T08:07:37.034Z,20.10
2022-07-27T08:08:37.001Z,20.10
2022-07-27T08:09:36.948Z,20.11
2022-07-27T08:10:36.900Z,20.19
2022-07-27T08:11:36.856Z,20.11
2022-07-27T08:12:36.815Z,20.11
2022-07-27T08:13:36.774Z,20.14
2022-07-27T08:14:36.729Z,20.21
2022-07-27T08:15:36.888Z,20.24
2022-07-27T08:16:36.770Z,20.17
2022-07-27T08:17:36.604Z,20.12
2022-07-27T08:18:36.561Z,20.11
2022-07-27T08:19:40.014Z,20.07
2022-07-27T08:20:36.478Z,20.07
2022-07-27T08:21:36.448Z,20.07
2022-07-27T08:22:36.394Z,20.14
2022-07-27T08:23:36.351Z,20.08
2022-07-27T08:24:36.310Z,20.00
2022-07-27T08:25:39.164Z,20.07
2022-07-27T08:26:36.227Z,20.04
2022-07-27T08:27:40.121Z,20.11
2022-07-27T08:28:37.044Z,20.08
2022-07-27T08:29:36.797Z,20.11
2022-07-27T08:30:36.062Z,20.08
2022-07-27T08:31:52.876Z,20.08
2022-07-27T08:32:36.013Z,20.02
2022-07-27T08:33:35.935Z,20.11
2022-07-27T08:34:35.892Z,20.07
2022-07-27T08:35:35.865Z,20.07
2022-07-27T08:36:35.809Z,20.04
2022-07-27T08:37:35.763Z,20.10
2022-07-27T08:38:35.726Z,20.11
2022-07-27T08:40:40.563Z,20.08
2022-07-27T08:41:35.597Z,20.15
2022-07-27T08:42:35.553Z,20.07
2022-07-27T08:43:35.513Z,20.24
2022-07-27T08:44:35.470Z,20.33
2022-07-27T08:45:35.431Z,20.33
2022-07-27T08:46:35.485Z,20.37
2022-07-27T08:47:35.342Z,20.53
2022-07-27T08:48:35.352Z,20.52
2022-07-27T08:49:43.070Z,20.59
2022-07-27T08:50:35.401Z,20.59
2022-07-27T08:51:35.172Z,20.71
2022-07-27T08:52:35.134Z,20.82
2022-07-27T08:53:52.105Z,20.86
2022-07-27T08:54:35.051Z,20.93
2022-07-27T08:55:35.028Z,20.86
2022-07-27T08:56:34.969Z,20.86
2022-07-27T08:57:34.936Z,21.00
2022-07-27T08:58:34.882Z,20.98
2022-07-27T08:59:34.904Z,21.01
2022-07-27T09:00:34.806Z,20.98
2022-07-27T09:01:34.837Z,20.98
2022-07-27T09:03:34.802Z,20.95
2022-07-27T09:04:34.716Z,20.98
2022-07-27T09:05:37.119Z,21.03
2022-07-27T09:06:34.549Z,21.05
2022-07-27T09:07:34.527Z,21.11
2022-07-27T09:08:34.463Z,21.10
2022-07-27T09:09:34.422Z,21.01
2022-07-27T09:10:34.385Z,21.04
2022-07-27T09:11:34.339Z,21.10
2022-07-27T09:12:34.297Z,21.14
2022-07-27T09:13:34.271Z,21.15
2022-07-27T09:14:34.214Z,21.17
2022-07-27T09:15:34.868Z,21.14
2022-07-27T09:17:14.825Z,21.14
2022-07-27T09:17:50.198Z,21.22
2022-07-27T09:18:34.123Z,21.28
2022-07-27T09:19:34.007Z,21.28
2022-07-27T09:20:33.996Z,21.28
2022-07-27T09:21:33.922Z,21.28
2022-07-27T09:22:33.878Z,21.30
2022-07-27T09:23:33.840Z,21.30
2022-07-27T09:24:46.726Z,21.28
2022-07-27T09:26:01.622Z,21.35
2022-07-27T09:26:34.616Z,21.37
2022-07-27T09:27:33.672Z,21.45
2022-07-27T09:28:33.662Z,21.41
2022-07-27T09:29:33.593Z,21.54
2022-07-27T09:30:33.549Z,21.51
2022-07-27T09:31:33.679Z,21.56
2022-07-27T09:32:33.465Z,21.53
2022-07-27T09:33:33.703Z,21.62
2022-07-27T09:34:33.384Z,21.63
2022-07-27T09:35:33.351Z,21.66
2022-07-27T09:36:33.503Z,21.72
2022-07-27T09:37:33.256Z,21.72
2022-07-27T09:38:33.220Z,21.77
2022-07-27T09:39:33.176Z,21.75
2022-07-27T09:40:33.133Z,21.84
2022-07-27T09:41:33.097Z,22.01
2022-07-27T09:43:08.900Z,22.00
2022-07-27T09:44:34.826Z,22.23
2022-07-27T09:45:34.196Z,22.37
2022-07-27T09:46:32.952Z,22.44
2022-07-27T09:47:32.853Z,22.51
2022-07-27T09:48:32.859Z,22.61
2022-07-27T09:49:32.764Z,22.63
2022-07-27T09:50:35.755Z,22.63
2022-07-27T09:51:58.995Z,22.68
2022-07-27T09:52:32.640Z,22.70
2022-07-27T09:53:42.998Z,22.77
2022-07-27T09:54:32.588Z,22.78
2022-07-27T09:55:32.515Z,22.88
2022-07-27T09:56:32.499Z,22.89
2022-07-27T09:57:32.430Z,22.99
2022-07-27T09:58:32.394Z,23.01
2022-07-27T09:59:32.351Z,23.06
2022-07-27T10:00:32.315Z,23.01
2022-07-27T10:01:32.407Z,23.08
2022-07-27T10:02:32.228Z,22.98
2022-07-27T10:03:32.186Z,22.95
2022-07-27T10:04:32.195Z,23.01
2022-07-27T10:05:32.105Z,23.02
2022-07-27T10:06:47.806Z,23.04
2022-07-27T10:07:32.021Z,22.98
2022-07-27T10:08:31.984Z,22.98
2022-07-27T10:09:31.947Z,22.96
2022-07-27T10:10:31.906Z,23.06
2022-07-27T10:11:31.862Z,22.99
2022-07-27T10:12:31.821Z,23.01
2022-07-27T10:13:31.779Z,23.06
2022-07-27T10:14:31.748Z,23.04
2022-07-27T10:15:31.751Z,23.08
2022-07-27T10:16:31.662Z,23.01
2022-07-27T10:17:31.616Z,23.08
2022-07-27T10:18:31.576Z,23.10
2022-07-27T10:19:31.537Z,23.16
2022-07-27T10:22:04.947Z,23.26
2022-07-27T10:23:04.894Z,23.26
2022-07-27T10:24:04.856Z,23.23
2022-07-27T10:25:04.844Z,23.29
2022-07-27T10:26:04.776Z,23.34
2022-07-27T10:27:48.016Z,23.42
2022-07-27T10:28:47.974Z,23.47
2022-07-27T10:29:47.942Z,23.49
2022-07-27T10:30:54.045Z,23.51
2022-07-27T10:31:47.854Z,23.52
2022-07-27T10:32:47.815Z,23.52
2022-07-27T10:41:24.154Z,23.73
2022-07-27T10:42:24.109Z,23.64
2022-07-27T10:43:24.065Z,23.63
2022-07-27T10:44:24.023Z,23.64
2022-07-27T10:45:23.986Z,23.59
2022-07-27T10:46:24.004Z,23.59
2022-07-27T10:47:23.901Z,23.58
2022-07-27T10:48:24.732Z,23.58
2022-07-27T10:49:23.889Z,23.59
2022-07-27T10:50:23.781Z,23.56
2022-07-27T10:51:23.739Z,23.66
2022-07-27T10:52:23.697Z,23.69
2022-07-27T10:53:23.660Z,23.71
2022-07-27T10:54:23.977Z,23.66
2022-07-27T10:55:23.577Z,23.76
2022-07-27T10:56:23.538Z,23.73
2022-07-27T10:57:23.498Z,23.70
2022-07-27T10:58:23.451Z,23.73
2022-07-27T10:59:23.414Z,23.81
2022-07-27T11:00:23.374Z,23.99
2022-07-27T11:01:23.435Z,24.07
2022-07-27T11:02:23.289Z,24.22
2022-07-27T11:03:23.252Z,24.24
2022-07-27T11:04:23.250Z,24.32
2022-07-27T11:05:58.654Z,24.31
2022-07-27T11:07:15.034Z,24.29
2022-07-27T11:07:25.012Z,24.28
2022-07-27T11:08:36.616Z,24.29
2022-07-27T11:10:22.966Z,24.31
2022-07-27T11:11:22.930Z,24.31
2022-07-27T11:12:22.886Z,24.29
2022-07-27T11:13:22.846Z,24.24
2022-07-27T11:14:30.605Z,24.25
2022-07-27T11:15:22.766Z,24.24
2022-07-27T11:16:25.712Z,24.22
2022-07-27T11:18:22.695Z,24.26
2022-07-27T11:19:22.655Z,24.26
2022-07-27T11:20:22.567Z,24.26
2022-07-27T11:21:26.406Z,24.25
2022-07-27T11:22:39.619Z,24.11
2022-07-27T11:23:52.200Z,24.09
2022-07-27T11:24:22.401Z,24.14
2022-07-27T11:25:22.359Z,24.24
2022-07-27T11:26:22.318Z,24.13
2022-07-27T11:27:25.384Z,24.14
2022-07-27T11:28:22.242Z,24.18
2022-07-27T11:29:22.198Z,24.14
2022-07-27T11:30:22.371Z,24.11
2022-07-27T11:31:45.064Z,24.07
2022-07-27T11:32:22.076Z,24.04
2022-07-27T11:33:22.037Z,24.03
2022-07-27T11:34:21.996Z,23.99
2022-07-27T11:35:21.959Z,23.94
2022-07-27T11:36:21.914Z,23.92
2022-07-27T11:37:21.875Z,23.91
2022-07-27T11:38:21.835Z,23.92
2022-07-27T11:39:49.722Z,23.88
2022-07-27T11:40:53.870Z,23.84
2022-07-27T11:41:47.654Z,23.88
2022-07-27T11:42:23.309Z,23.79
2022-07-27T11:43:21.634Z,23.84
2022-07-27T11:44:21.590Z,23.88
2022-07-27T11:45:21.555Z,23.89
2022-07-27T11:46:21.565Z,23.94
2022-07-27T11:47:21.475Z,23.94
2022-07-27T11:48:21.430Z,23.96
2022-07-27T11:49:21.729Z,24.09
2022-07-27T11:50:21.347Z,24.13
2022-07-27T11:51:21.311Z,24.36
2022-07-27T11:52:21.293Z,24.28
2022-07-27T11:53:21.234Z,24.38
2022-07-27T11:54:21.192Z,24.43
2022-07-27T11:55:21.147Z,24.46
2022-07-27T11:56:21.104Z,24.62
2022-07-27T11:57:21.227Z,24.66
2022-07-27T11:58:21.025Z,24.71
2022-07-27T11:59:20.985Z,24.79
2022-07-27T12:00:20.943Z,24.81
2022-07-27T12:01:20.995Z,24.89
2022-07-27T12:02:20.929Z,25.04
2022-07-27T12:03:24.253Z,25.07
2022-07-27T12:04:20.783Z,25.22
2022-07-27T12:08:28.419Z,25.68
2022-07-27T12:09:28.675Z,25.77
2022-07-27T12:10:28.326Z,25.93
2022-07-27T12:12:28.240Z,26.18
2022-07-27T12:13:28.204Z,26.26
2022-07-27T12:14:28.160Z,26.22
2022-07-27T12:15:45.329Z,26.45
2022-07-27T12:16:28.110Z,26.49
2022-07-27T12:17:28.047Z,26.53
2022-07-27T12:18:28.005Z,26.41
2022-07-27T12:19:27.966Z,26.45
2022-07-27T12:20:27.923Z,26.44
2022-07-27T12:21:31.789Z,26.48
2022-07-27T12:22:27.847Z,26.60
2022-07-27T12:23:27.806Z,26.68
2022-07-27T12:24:27.765Z,26.81
2022-07-27T12:25:27.727Z,26.81
2022-07-27T12:26:30.037Z,26.82
2022-07-27T12:27:27.647Z,26.74
2022-07-27T12:28:27.607Z,26.67
2022-07-27T12:29:27.570Z,26.56
2022-07-27T12:30:27.588Z,26.53
2022-07-27T12:31:27.544Z,26.48
2022-07-27T12:32:27.449Z,26.52
2022-07-27T12:33:27.435Z,27.00
2022-07-27T12:34:27.370Z,27.13
2022-07-27T12:35:28.237Z,27.64
2022-07-27T12:36:27.293Z,28.13
2022-07-27T12:37:27.257Z,28.57
2022-07-27T12:38:27.213Z,29.07
2022-07-27T12:39:27.174Z,29.55
2022-07-27T12:40:27.134Z,29.96
2022-07-27T12:41:27.102Z,29.96
2022-07-27T12:42:27.058Z,29.73
2022-07-27T12:43:27.022Z,29.42
2022-07-27T12:44:26.984Z,29.15
2022-07-27T12:45:26.951Z,28.94
2022-07-27T12:46:26.922Z,28.67
2022-07-27T12:47:28.014Z,28.45
2022-07-27T12:48:26.822Z,28.18
2022-07-27T12:49:26.868Z,28.08
2022-07-27T12:50:26.745Z,27.94
2022-07-27T12:51:26.708Z,27.75
2022-07-27T12:52:26.666Z,27.60
2022-07-27T12:53:26.639Z,27.45
2022-07-27T12:54:26.589Z,27.33
2022-07-27T12:55:26.551Z,27.33
2022-07-27T12:56:26.878Z,27.19
2022-07-27T12:57:53.534Z,27.03
2022-07-27T12:58:26.444Z,26.96
2022-07-27T12:59:26.395Z,26.96
2022-07-27T13:00:31.149Z,26.85
2022-07-27T13:01:26.409Z,26.81
2022-07-27T13:02:26.364Z,26.76
2022-07-27T13:03:26.240Z,26.71
2022-07-27T13:04:26.196Z,26.85
2022-07-27T13:05:26.161Z,26.81
2022-07-27T13:06:26.117Z,26.74
2022-07-27T13:07:26.081Z,26.78
2022-07-27T13:08:26.040Z,26.67
2022-07-27T13:09:26.001Z,26.63
2022-07-27T13:10:25.964Z,26.56
2022-07-27T13:11:25.922Z,26.48
2022-07-27T13:12:25.882Z,26.42
2022-07-27T13:13:25.849Z,26.41
2022-07-27T13:14:25.805Z,26.46
2022-07-27T13:15:25.776Z,26.53
2022-07-27T13:16:25.793Z,26.53
2022-07-27T13:17:25.687Z,26.73
2022-07-27T13:18:25.644Z,26.96
2022-07-27T13:19:25.611Z,26.93
2022-07-27T13:20:25.564Z,27.00
2022-07-27T13:21:25.539Z,27.57
2022-07-27T13:22:25.485Z,28.23
2022-07-27T13:23:25.448Z,29.00
2022-07-27T13:24:25.410Z,29.20
2022-07-27T13:25:25.368Z,29.39
2022-07-27T13:26:25.328Z,29.94
2022-07-27T13:27:25.290Z,30.26
2022-07-27T13:28:25.252Z,30.63
2022-07-27T13:29:25.232Z,30.73